METAR Data
IDs: Format: Raw Decoded Include TAF

Data at: 0459 UTC 27 Jan 2021

KSCH 270255Z 04004KT 3SM -SN BKN014 OVC026 M04/M04 A2987 RMK LAST
KSCH 270155Z 05004KT 10SM BKN012 BKN028 OVC046 M04/M04 A2988
KSCH 270148Z 05005KT 10SM SCT010 BKN028 OVC046 M04/M04 A2989
KSCH 270014Z 07004KT 7SM SCT010 BKN033 OVC048 M04/M04 A2990
KSCH 262247Z 07004KT 2SM -SN BKN009 BKN013 OVC019 M04/M04 A2992
KSCH 262148Z 06004KT 1/2SM -SN OVC007 M04/M05 A2994
KSCH 262055Z 07004KT 1/2SM -SN OVC008 M04/M05 A2993
KSCH 261951Z 08004KT 1/2SM -SN OVC005 M04/M05 A2993
KSCH 261845Z 08004KT 1SM -SN BKN007 OVC013 M04/M06 A2994
KSCH 261821Z 03003KT 1SM -SN SCT014 BKN020 OVC025 M03/M08 A2997
KSCH 261759Z 04004KT 5SM -SN SCT028 BKN034 OVC060 M03/M08 A2997
KSCH 261645Z 04004KT 10SM OVC075 M03/M09 A3001
KSCH 261545Z 04008KT 15SM OVC085 M04/M09 A3004
KSCH 261450Z 00000KT 15SM BKN085 OVC100 M05/M09 A3006
KSCH 261345Z 00000KT 15SM BKN100 M07/M10 A3005
KSCH 261249Z 00000KT 15SM CLR M08/M11 A3006 RMK FIRST
KSCH 260149Z 00000KT 15SM CLR M06/M11 A3013
KSCH 260055Z 36003KT 15SM CLR M06/M10 A3013
KSCH 250045Z 31011G15KT 10SM CLR M08/M16 A3015
KSCH 252355Z 00000KT 15SM CLR M05/M10 A3013
KSCH 242255Z 29011G17KT 15SM CLR M08/M16 A3014
KSCH 252250Z 07003KT 15SM CLR M03/M11 A3010
KSCH 242159Z 28011G17KT 15SM CLR M07/M16 A3013
KSCH 252149Z 00000KT 15SM FEW250 M02/M11 A3009
KSCH 252053Z 00000KT 15SM FEW250 M01/M11 A3011
KSCH 251850Z 00000KT 15SM CLR M01/M11 A3011
KSCH 251753Z 00000KT 15SM CLR M02/M11 A3012